createdAt,value
2023-02-28T00:01:32.413Z,16.63
2023-02-28T00:03:59.425Z,15.20
2023-02-28T00:06:26.452Z,13.57
2023-02-28T00:08:53.473Z,15.52
2023-02-28T00:11:20.420Z,16.02
2023-02-28T00:13:48.709Z,15.52
2023-02-28T00:16:24.993Z,14.88
2023-02-28T00:18:52.374Z,16.67
2023-02-28T00:21:20.876Z,15.48
2023-02-28T00:23:48.371Z,18.10
2023-02-28T00:26:15.295Z,14.07
2023-02-28T00:28:42.200Z,14.18
2023-02-28T00:31:09.133Z,15.93
2023-02-28T00:33:36.204Z,17.92
2023-02-28T00:36:08.128Z,21.45
2023-02-28T00:38:35.075Z,16.67
2023-02-28T00:41:05.578Z,12.27
2023-02-28T00:43:34.777Z,14.80
2023-02-28T00:46:02.191Z,19.27
2023-02-28T00:48:29.125Z,19.08
2023-02-28T00:50:55.979Z,24.00
2023-02-28T00:53:23.198Z,19.85
2023-02-28T00:55:51.126Z,18.73
2023-02-28T00:58:18.022Z,18.30
2023-02-28T01:00:49.802Z,13.38
2023-02-28T01:03:18.571Z,16.42
2023-02-28T01:05:45.659Z,16.02
2023-02-28T01:08:13.321Z,17.52
2023-02-28T01:10:40.233Z,14.85
2023-02-28T01:13:07.522Z,16.30
2023-02-28T01:15:34.796Z,15.68
2023-02-28T01:18:01.617Z,16.23
2023-02-28T01:20:28.657Z,17.48
2023-02-28T01:22:55.993Z,16.45
2023-02-28T01:25:22.913Z,20.20
2023-02-28T01:27:49.811Z,18.50
2023-02-28T01:30:16.908Z,16.88
2023-02-28T01:32:43.736Z,17.33
2023-02-28T01:35:10.495Z,15.77
2023-02-28T01:37:37.380Z,20.33
2023-02-28T01:40:05.132Z,19.05
2023-02-28T01:42:31.955Z,22.58
2023-02-28T01:45:29.108Z,14.60
2023-02-28T01:48:03.047Z,22.27
2023-02-28T01:50:35.671Z,16.63
2023-02-28T01:53:06.539Z,20.88
2023-02-28T01:55:34.389Z,16.83
2023-02-28T01:58:05.286Z,19.67
2023-02-28T02:00:32.838Z,19.80
2023-02-28T02:03:10.308Z,16.55
2023-02-28T02:05:39.125Z,17.30
2023-02-28T02:08:27.469Z,18.00
2023-02-28T02:11:00.821Z,15.40
2023-02-28T02:13:33.377Z,19.15
2023-02-28T02:16:32.701Z,19.80
2023-02-28T02:19:45.958Z,20.25
2023-02-28T02:22:44.769Z,16.63
2023-02-28T02:25:32.971Z,13.82
2023-02-28T02:28:05.569Z,16.88
2023-02-28T02:30:50.045Z,20.02
2023-02-28T02:33:38.316Z,15.30
2023-02-28T02:36:17.524Z,18.23
2023-02-28T02:39:15.089Z,19.13
2023-02-28T02:41:49.141Z,15.82
2023-02-28T02:44:24.064Z,16.33
2023-02-28T02:46:55.003Z,16.88
2023-02-28T02:49:26.884Z,17.45
2023-02-28T02:51:57.386Z,16.88
2023-02-28T02:54:31.571Z,14.85
2023-02-28T02:57:01.660Z,17.88
2023-02-28T02:59:31.264Z,19.45
2023-02-28T03:02:03.603Z,18.80
2023-02-28T03:04:35.908Z,16.10
2023-02-28T03:07:02.785Z,17.05
2023-02-28T03:09:29.640Z,15.38
2023-02-28T03:11:57.845Z,16.25
2023-02-28T03:14:55.164Z,21.52
2023-02-28T03:17:46.700Z,18.15
2023-02-28T03:20:25.661Z,19.15
2023-02-28T03:23:01.613Z,18.27
2023-02-28T03:25:48.780Z,18.58
2023-02-28T03:28:34.096Z,15.90
2023-02-28T03:31:21.472Z,16.48
2023-02-28T03:34:19.692Z,14.38
2023-02-28T03:36:54.976Z,17.75
2023-02-28T03:39:38.750Z,18.58
2023-02-28T03:42:10.793Z,17.08
2023-02-28T03:44:57.467Z,15.80
2023-02-28T03:47:34.988Z,16.70
2023-02-28T03:50:16.804Z,17.25
2023-02-28T03:52:48.210Z,16.42
2023-02-28T03:55:16.381Z,15.05
2023-02-28T03:58:05.008Z,18.88
2023-02-28T04:00:38.910Z,15.27
2023-02-28T04:03:06.457Z,18.67
2023-02-28T04:05:34.218Z,15.02
2023-02-28T04:08:09.089Z,16.25
2023-02-28T04:10:36.089Z,14.88
2023-02-28T04:13:02.881Z,16.58
2023-02-28T04:15:29.793Z,15.35
2023-02-28T04:17:56.554Z,16.05
2023-02-28T04:20:23.351Z,17.35
2023-02-28T04:22:50.211Z,21.63
2023-02-28T04:25:17.087Z,15.85
2023-02-28T04:27:45.543Z,15.38
2023-02-28T04:30:13.450Z,19.10
2023-02-28T04:32:40.412Z,19.77
2023-02-28T04:35:08.012Z,17.13
2023-02-28T04:37:35.961Z,21.48
2023-02-28T04:40:03.899Z,19.48
2023-02-28T04:42:36.644Z,20.40
2023-02-28T04:45:04.596Z,27.17
2023-02-28T04:47:31.629Z,29.98
2023-02-28T04:49:58.679Z,26.45
2023-02-28T04:52:25.570Z,27.33
2023-02-28T04:54:52.373Z,26.17
2023-02-28T04:57:19.256Z,15.80
2023-02-28T04:59:46.170Z,22.17
2023-02-28T05:02:12.998Z,17.70
2023-02-28T05:04:39.882Z,16.60
2023-02-28T05:07:06.710Z,19.90
2023-02-28T05:09:34.222Z,16.13
2023-02-28T05:12:01.190Z,19.58
2023-02-28T05:14:28.032Z,16.05
2023-02-28T05:16:54.797Z,18.02
2023-02-28T05:19:22.440Z,14.85
2023-02-28T05:21:55.085Z,15.27
2023-02-28T05:24:24.628Z,33.53
2023-02-28T05:26:53.825Z,15.05
2023-02-28T05:29:20.942Z,15.95
2023-02-28T05:31:48.149Z,15.20
2023-02-28T05:34:17.055Z,12.75
2023-02-28T05:36:44.236Z,15.35
2023-02-28T05:39:13.861Z,15.82
2023-02-28T05:41:43.271Z,12.90
2023-02-28T05:44:10.831Z,16.02
2023-02-28T05:46:37.916Z,13.70
2023-02-28T05:49:04.951Z,17.10
2023-02-28T05:51:32.417Z,13.85
2023-02-28T05:54:03.087Z,14.20
2023-02-28T05:56:30.123Z,14.55
2023-02-28T05:58:57.069Z,16.70
2023-02-28T06:01:36.973Z,14.73
2023-02-28T06:04:05.879Z,13.60
2023-02-28T06:06:36.874Z,15.23
2023-02-28T06:09:06.725Z,18.58
2023-02-28T06:11:34.188Z,14.65
2023-02-28T06:14:02.856Z,15.52
2023-02-28T06:16:32.194Z,12.52
2023-02-28T06:19:00.618Z,12.18
2023-02-28T06:21:31.438Z,16.52
2023-02-28T06:23:59.302Z,16.98
2023-02-28T06:26:26.600Z,14.38
2023-02-28T06:28:54.076Z,15.73
2023-02-28T06:31:22.191Z,19.95
2023-02-28T06:33:49.158Z,14.27
2023-02-28T06:36:17.893Z,21.10
2023-02-28T06:38:45.636Z,14.25
2023-02-28T06:41:12.894Z,18.15
2023-02-28T06:43:42.815Z,13.90
2023-02-28T06:46:13.256Z,15.98
2023-02-28T06:48:40.612Z,12.85
2023-02-28T06:51:17.800Z,24.08
2023-02-28T06:53:44.891Z,13.32
2023-02-28T06:56:14.839Z,14.05
2023-02-28T06:58:42.491Z,14.57
2023-02-28T07:01:09.725Z,16.27
2023-02-28T07:03:37.221Z,16.45
2023-02-28T07:06:05.498Z,15.77
2023-02-28T07:08:32.778Z,14.18
2023-02-28T07:10:59.629Z,13.65
2023-02-28T07:13:27.120Z,17.92
2023-02-28T07:15:55.933Z,12.50
2023-02-28T07:18:23.301Z,12.25
2023-02-28T07:20:50.494Z,17.05
2023-02-28T07:23:17.754Z,18.05
2023-02-28T07:25:44.995Z,19.02
2023-02-28T07:28:11.966Z,15.48
2023-02-28T07:30:38.802Z,16.80
2023-02-28T07:33:05.670Z,15.48
2023-02-28T07:35:33.256Z,14.63
2023-02-28T07:38:00.561Z,12.63
2023-02-28T07:40:28.105Z,17.45
2023-02-28T07:42:55.095Z,12.25
2023-02-28T07:45:22.028Z,15.88
2023-02-28T07:47:50.160Z,15.18
2023-02-28T07:50:17.395Z,14.77
2023-02-28T07:52:44.399Z,16.63
2023-02-28T07:55:11.571Z,15.93
2023-02-28T07:57:39.004Z,13.25
2023-02-28T08:00:07.882Z,14.60
2023-02-28T08:02:35.028Z,13.60
2023-02-28T08:05:02.420Z,11.18
2023-02-28T08:07:29.307Z,17.30
2023-02-28T08:09:56.094Z,14.70
2023-02-28T08:12:23.017Z,9.98
2023-02-28T08:14:49.862Z,13.75
2023-02-28T08:17:16.712Z,11.57
2023-02-28T08:19:46.263Z,10.98
2023-02-28T08:22:13.241Z,14.50
2023-02-28T08:24:42.704Z,10.25
2023-02-28T08:27:09.987Z,12.93
2023-02-28T08:29:39.249Z,9.20
2023-02-28T08:32:12.568Z,10.60
2023-02-28T08:34:48.087Z,10.60
2023-02-28T08:37:15.094Z,9.27
2023-02-28T08:39:41.896Z,9.80
2023-02-28T08:42:08.806Z,9.13
2023-02-28T08:44:35.750Z,12.35
2023-02-28T08:47:02.608Z,8.88
2023-02-28T08:49:29.731Z,8.85
2023-02-28T08:51:58.190Z,6.75
2023-02-28T08:54:25.625Z,8.15
2023-02-28T08:56:52.606Z,12.48
2023-02-28T08:59:19.498Z,14.18
2023-02-28T09:01:46.297Z,7.20
2023-02-28T09:04:14.613Z,8.63
2023-02-28T09:06:45.461Z,8.60
2023-02-28T09:09:12.350Z,16.00
2023-02-28T09:11:39.311Z,13.48
2023-02-28T09:14:06.146Z,9.75
2023-02-28T09:16:34.539Z,8.43
2023-02-28T09:19:02.709Z,11.95
2023-02-28T09:21:29.961Z,7.47
2023-02-28T09:23:57.043Z,7.85
2023-02-28T09:26:27.058Z,6.97
2023-02-28T09:28:55.650Z,6.60
2023-02-28T09:31:26.030Z,7.47
2023-02-28T09:33:54.790Z,8.95
2023-02-28T09:36:23.323Z,5.35
2023-02-28T09:38:54.022Z,7.25
2023-02-28T09:41:24.568Z,6.78
2023-02-28T09:43:56.071Z,9.75
2023-02-28T09:46:38.413Z,7.55
2023-02-28T09:49:15.299Z,8.27
2023-02-28T09:52:01.802Z,5.63
2023-02-28T09:54:34.187Z,2.72
2023-02-28T09:57:06.248Z,5.50
2023-02-28T10:00:02.987Z,4.25
2023-02-28T10:02:45.494Z,9.38
2023-02-28T10:05:22.593Z,4.63
2023-02-28T10:08:09.690Z,5.53
2023-02-28T10:10:39.590Z,4.13
2023-02-28T10:13:15.871Z,4.15
2023-02-28T10:15:43.480Z,4.95
2023-02-28T10:18:17.644Z,3.78
2023-02-28T10:20:46.240Z,4.18
2023-02-28T10:23:28.319Z,4.95
2023-02-28T10:26:09.504Z,5.57
2023-02-28T10:28:36.475Z,3.35
2023-02-28T10:31:03.972Z,4.28
2023-02-28T10:33:38.045Z,3.45
2023-02-28T10:36:07.786Z,3.20
2023-02-28T10:38:36.945Z,3.72
2023-02-28T10:41:19.564Z,3.47
2023-02-28T10:43:46.497Z,4.75
2023-02-28T10:46:27.216Z,3.92
2023-02-28T10:49:30.202Z,3.13
2023-02-28T10:52:00.114Z,3.08
2023-02-28T10:54:39.299Z,2.55
2023-02-28T10:57:10.175Z,4.25
2023-02-28T10:59:37.324Z,3.75
2023-02-28T11:02:45.720Z,3.38
2023-02-28T11:05:30.667Z,3.65
2023-02-28T11:08:17.318Z,4.73
2023-02-28T11:10:57.437Z,3.25
2023-02-28T11:13:30.926Z,3.90
2023-02-28T11:16:01.908Z,7.00
2023-02-28T11:18:30.774Z,3.33
2023-02-28T11:21:00.840Z,5.35
2023-02-28T11:23:31.725Z,2.75
2023-02-28T11:26:02.717Z,2.80
2023-02-28T11:28:38.049Z,4.03
2023-02-28T11:31:07.034Z,3.30
2023-02-28T11:34:00.756Z,3.60
2023-02-28T11:36:30.988Z,3.10
2023-02-28T11:39:04.558Z,2.92
2023-02-28T11:42:03.214Z,4.95
2023-02-28T11:44:57.390Z,4.75
2023-02-28T11:47:33.225Z,4.32
2023-02-28T11:50:17.381Z,2.95
2023-02-28T11:52:54.651Z,4.15
2023-02-28T11:56:04.826Z,2.92
2023-02-28T11:58:32.484Z,3.40
2023-02-28T12:01:53.274Z,3.80
2023-02-28T12:04:34.621Z,3.08
2023-02-28T12:07:26.494Z,4.03
2023-02-28T12:10:20.993Z,2.45
2023-02-28T12:12:50.694Z,3.95
2023-02-28T12:15:28.598Z,4.03
2023-02-28T12:18:18.791Z,4.10
2023-02-28T12:21:00.996Z,3.67
2023-02-28T12:23:39.007Z,6.35
2023-02-28T12:26:14.741Z,3.47
2023-02-28T12:28:50.307Z,3.45
2023-02-28T12:31:25.672Z,6.53
2023-02-28T12:34:10.309Z,7.43
2023-02-28T12:36:38.705Z,5.82
2023-02-28T12:39:12.559Z,4.47
2023-02-28T12:41:46.263Z,3.47
2023-02-28T12:44:27.160Z,4.35
2023-02-28T12:46:57.922Z,4.10
2023-02-28T12:49:33.974Z,6.28
2023-02-28T12:52:02.829Z,3.92
2023-02-28T12:54:35.076Z,7.45
2023-02-28T12:57:45.278Z,4.07
2023-02-28T13:00:17.436Z,6.80
2023-02-28T13:03:07.822Z,4.57
2023-02-28T13:06:02.314Z,4.47
2023-02-28T13:08:53.932Z,4.15
2023-02-28T13:11:34.338Z,5.10
2023-02-28T13:14:06.573Z,4.30
2023-02-28T13:17:11.320Z,5.15
2023-02-28T13:20:00.457Z,4.18
2023-02-28T13:22:27.293Z,6.95
2023-02-28T13:24:56.305Z,4.68
2023-02-28T13:27:37.762Z,6.13
2023-02-28T13:30:43.490Z,5.53
2023-02-28T13:33:45.962Z,5.95
2023-02-28T13:36:32.599Z,3.55
2023-02-28T13:39:06.560Z,7.32
2023-02-28T13:41:34.432Z,7.35
2023-02-28T13:44:04.849Z,5.45
2023-02-28T13:46:32.872Z,5.45
2023-02-28T13:49:34.976Z,7.35
2023-02-28T13:52:07.838Z,5.68
2023-02-28T13:54:57.680Z,5.63
2023-02-28T13:57:33.786Z,5.75
2023-02-28T14:03:11.448Z,6.10
2023-02-28T14:05:39.820Z,6.18
2023-02-28T14:08:24.184Z,9.40
2023-02-28T14:11:04.292Z,6.13
2023-02-28T14:13:48.560Z,5.13
2023-02-28T14:16:25.152Z,6.85
2023-02-28T14:19:00.366Z,5.00
2023-02-28T14:21:36.737Z,4.20
2023-02-28T14:24:22.516Z,6.35
2023-02-28T14:27:04.764Z,6.78
2023-02-28T14:29:56.474Z,8.68
2023-02-28T14:32:41.470Z,5.35
2023-02-28T14:35:26.502Z,6.23
2023-02-28T14:37:54.964Z,5.57
2023-02-28T14:40:34.810Z,5.40
2023-02-28T14:43:04.319Z,5.18
2023-02-28T14:45:33.509Z,6.80
2023-02-28T14:48:02.114Z,6.00
2023-02-28T14:50:33.558Z,6.53
2023-02-28T14:53:00.907Z,5.65
2023-02-28T14:55:35.952Z,6.22
2023-02-28T14:58:07.376Z,5.43
2023-02-28T15:00:48.081Z,7.88
2023-02-28T15:03:25.746Z,7.82
2023-02-28T15:05:58.198Z,6.00
2023-02-28T15:08:25.951Z,6.32
2023-02-28T15:11:02.353Z,5.32
2023-02-28T15:13:37.692Z,8.52
2023-02-28T15:16:13.684Z,6.35
2023-02-28T15:19:20.658Z,9.88
2023-02-28T15:21:51.476Z,8.52
2023-02-28T15:24:24.823Z,7.10
2023-02-28T15:27:00.731Z,6.78
2023-02-28T15:29:30.133Z,8.32
2023-02-28T15:31:58.761Z,6.60
2023-02-28T15:34:43.553Z,8.23
2023-02-28T15:37:30.415Z,6.40
2023-02-28T15:39:58.776Z,4.93
2023-02-28T15:42:30.395Z,6.22
2023-02-28T15:44:58.336Z,8.88
2023-02-28T15:47:28.252Z,5.72
2023-02-28T15:49:59.812Z,5.63
2023-02-28T15:52:41.880Z,9.68
2023-02-28T15:55:13.817Z,8.93
2023-02-28T15:57:42.068Z,7.55
2023-02-28T16:00:17.251Z,5.07
2023-02-28T16:02:44.488Z,5.67
2023-02-28T16:05:11.406Z,6.03
2023-02-28T16:07:44.065Z,5.90
2023-02-28T16:10:15.032Z,6.00
2023-02-28T16:12:42.707Z,7.13
2023-02-28T16:15:19.676Z,4.22
2023-02-28T16:17:47.617Z,6.68
2023-02-28T16:20:23.442Z,5.88
2023-02-28T16:22:50.923Z,7.72
2023-02-28T16:25:24.863Z,5.55
2023-02-28T16:27:58.528Z,8.52
2023-02-28T16:30:28.860Z,6.57
2023-02-28T16:32:56.723Z,5.65
2023-02-28T16:35:24.222Z,7.38
2023-02-28T16:37:55.072Z,7.95
2023-02-28T16:40:26.333Z,7.07
2023-02-28T16:42:56.913Z,5.55
2023-02-28T16:45:26.389Z,5.88
2023-02-28T16:47:53.873Z,7.40
2023-02-28T16:50:26.059Z,7.28
2023-02-28T16:52:55.716Z,7.70
2023-02-28T16:55:24.574Z,7.60
2023-02-28T16:57:57.715Z,5.70
2023-02-28T17:00:26.434Z,7.63
2023-02-28T17:02:53.403Z,6.53
2023-02-28T17:05:21.399Z,10.98
2023-02-28T17:07:49.031Z,9.32
2023-02-28T17:10:18.549Z,7.13
2023-02-28T17:12:45.677Z,7.20
2023-02-28T17:15:15.271Z,10.10
2023-02-28T17:17:43.613Z,7.65
2023-02-28T17:20:16.318Z,7.82
2023-02-28T17:22:43.289Z,15.23
2023-02-28T17:25:11.460Z,9.75
2023-02-28T17:27:38.461Z,9.90
2023-02-28T17:30:22.569Z,8.65
2023-02-28T17:32:49.902Z,7.43
2023-02-28T17:35:17.512Z,7.97
2023-02-28T17:37:44.517Z,8.55
2023-02-28T17:40:17.316Z,7.80
2023-02-28T17:42:45.156Z,10.02
2023-02-28T17:45:15.926Z,7.07
2023-02-28T17:47:46.232Z,8.50
2023-02-28T17:50:16.563Z,10.88
2023-02-28T17:52:43.394Z,10.18
2023-02-28T17:55:11.059Z,11.38
2023-02-28T17:57:37.980Z,8.50
2023-02-28T18:00:08.949Z,8.05
2023-02-28T18:02:35.963Z,11.23
2023-02-28T18:05:05.438Z,13.15
2023-02-28T18:07:32.763Z,11.52
2023-02-28T18:09:59.702Z,9.38
2023-02-28T18:12:26.607Z,8.98
2023-02-28T18:14:54.308Z,10.68
2023-02-28T18:17:21.255Z,10.10
2023-02-28T18:19:48.137Z,10.20
2023-02-28T18:22:14.940Z,8.93
2023-02-28T18:24:41.881Z,10.38
2023-02-28T18:27:08.743Z,11.60
2023-02-28T18:29:35.641Z,10.10
2023-02-28T18:32:02.569Z,12.95
2023-02-28T18:34:30.679Z,14.50
2023-02-28T18:36:57.848Z,25.70
2023-02-28T18:39:24.734Z,25.92
2023-02-28T18:41:51.559Z,21.33
2023-02-28T18:44:21.085Z,22.90
2023-02-28T18:46:50.213Z,11.15
2023-02-28T18:49:18.161Z,15.15
2023-02-28T18:51:46.451Z,16.88
2023-02-28T18:54:14.245Z,11.25
2023-02-28T18:56:41.131Z,19.35
2023-02-28T18:59:08.065Z,25.23
2023-02-28T19:01:35.497Z,23.55
2023-02-28T19:04:04.061Z,31.77
2023-02-28T19:06:32.964Z,24.73
2023-02-28T19:09:02.324Z,35.33
2023-02-28T19:11:29.541Z,31.98
2023-02-28T19:13:56.957Z,26.55
2023-02-28T19:16:24.385Z,21.67
2023-02-28T19:18:51.385Z,21.00
2023-02-28T19:21:20.261Z,20.30
2023-02-28T19:23:47.193Z,18.70
2023-02-28T19:26:16.528Z,12.40
2023-02-28T19:28:43.567Z,15.13
2023-02-28T19:31:15.871Z,13.63
2023-02-28T19:33:43.404Z,12.65
2023-02-28T19:36:12.602Z,11.95
2023-02-28T19:38:40.449Z,14.27
2023-02-28T19:41:09.374Z,14.25
2023-02-28T19:43:36.319Z,11.85
2023-02-28T19:46:03.718Z,18.80
2023-02-28T19:48:30.746Z,16.10
2023-02-28T19:50:59.068Z,18.30
2023-02-28T19:53:26.988Z,16.13
2023-02-28T19:55:54.681Z,13.77
2023-02-28T19:58:22.014Z,15.27
2023-02-28T20:00:49.361Z,16.17
2023-02-28T20:03:18.345Z,15.00
2023-02-28T20:05:46.339Z,11.07
2023-02-28T20:08:14.210Z,19.13
2023-02-28T20:10:41.094Z,16.77
2023-02-28T20:13:08.683Z,14.85
2023-02-28T20:15:37.517Z,17.27
2023-02-28T20:18:04.864Z,14.57
2023-02-28T20:20:31.687Z,15.48
2023-02-28T20:22:58.525Z,18.42
2023-02-28T20:25:25.396Z,20.13
2023-02-28T20:27:52.214Z,14.55
2023-02-28T20:30:22.753Z,24.65
2023-02-28T20:32:49.591Z,26.45
2023-02-28T20:35:16.685Z,21.25
2023-02-28T20:37:44.703Z,22.58
2023-02-28T20:40:12.425Z,21.10
2023-02-28T20:42:39.258Z,19.08
2023-02-28T20:45:06.616Z,18.15
2023-02-28T20:47:33.555Z,15.80
2023-02-28T20:50:00.366Z,16.17
2023-02-28T20:52:27.572Z,14.43
2023-02-28T20:54:54.418Z,19.17
2023-02-28T20:57:21.221Z,20.13
2023-02-28T20:59:48.089Z,22.48
2023-02-28T21:02:16.990Z,24.40
2023-02-28T21:04:43.926Z,25.08
2023-02-28T21:07:10.757Z,25.00
2023-02-28T21:09:37.554Z,21.35
2023-02-28T21:12:04.544Z,16.75
2023-02-28T21:14:32.279Z,18.55
2023-02-28T21:16:59.081Z,18.77
2023-02-28T21:19:25.879Z,16.10
2023-02-28T21:21:55.414Z,19.55
2023-02-28T21:24:22.372Z,15.68
2023-02-28T21:26:49.434Z,21.98
2023-02-28T21:29:16.701Z,19.85
2023-02-28T21:31:43.770Z,20.35
2023-02-28T21:34:13.031Z,18.38
2023-02-28T21:36:45.752Z,20.63
2023-02-28T21:39:25.950Z,19.38
2023-02-28T21:41:54.209Z,19.30
2023-02-28T21:44:22.764Z,17.05
2023-02-28T21:46:52.513Z,20.17
2023-02-28T21:49:19.504Z,15.60
2023-02-28T21:51:46.429Z,17.35
2023-02-28T21:54:13.905Z,16.85
2023-02-28T21:56:40.861Z,16.38
2023-02-28T21:59:09.647Z,13.70
2023-02-28T22:01:44.260Z,14.70
2023-02-28T22:04:21.029Z,16.30
2023-02-28T22:06:52.925Z,17.17
2023-02-28T22:09:20.598Z,16.33
2023-02-28T22:11:47.451Z,20.73
2023-02-28T22:14:14.617Z,18.83
2023-02-28T22:16:51.407Z,20.25
2023-02-28T22:19:20.587Z,15.90
2023-02-28T22:21:47.673Z,19.33
2023-02-28T22:24:14.863Z,15.60
2023-02-28T22:26:41.822Z,16.42
2023-02-28T22:29:09.156Z,14.70
2023-02-28T22:31:36.606Z,17.00
2023-02-28T22:34:07.241Z,19.92
2023-02-28T22:36:34.715Z,18.38
2023-02-28T22:39:02.185Z,20.13
2023-02-28T22:41:30.375Z,16.73
2023-02-28T22:44:00.007Z,18.40
2023-02-28T22:46:28.874Z,22.08
2023-02-28T22:48:58.176Z,18.00
2023-02-28T22:51:26.223Z,19.48
2023-02-28T22:53:54.617Z,18.48
2023-02-28T22:56:23.968Z,16.52
2023-02-28T22:58:52.772Z,19.10
2023-02-28T23:01:22.176Z,14.27
2023-02-28T23:03:49.607Z,16.70
2023-02-28T23:06:24.251Z,18.55
2023-02-28T23:08:53.395Z,16.00
2023-02-28T23:11:26.927Z,17.65
2023-02-28T23:14:00.559Z,16.42
2023-02-28T23:16:37.434Z,13.32
2023-02-28T23:19:08.723Z,15.50
2023-02-28T23:21:35.804Z,16.55
2023-02-28T23:24:04.862Z,13.75
2023-02-28T23:26:32.842Z,13.70
2023-02-28T23:29:00.393Z,17.75
2023-02-28T23:31:27.335Z,14.50
2023-02-28T23:33:55.432Z,14.75
2023-02-28T23:36:22.660Z,13.45
2023-02-28T23:38:51.314Z,14.98
2023-02-28T23:41:19.403Z,14.02
2023-02-28T23:43:46.404Z,13.73
2023-02-28T23:46:14.475Z,13.93
2023-02-28T23:48:41.768Z,13.73
2023-02-28T23:51:16.970Z,13.60
2023-02-28T23:53:47.036Z,17.08
2023-02-28T23:56:16.619Z,14.52
2023-02-28T23:58:45.874Z,14.48
